sensor_id;sensor_type;location;lat;lon;timestamp;pressure;altitude;pressure_sealevel;temperature;humidity
30421;BME280;17218;54.070;10.012;2022-12-10T00:01:25;100684.75;;;-0.49;100.00
30421;BME280;17218;54.070;10.012;2022-12-10T00:03:53;100685.38;;;-0.54;100.00
30421;BME280;17218;54.070;10.012;2022-12-10T00:06:22;100687.94;;;-0.54;100.00
30421;BME280;17218;54.070;10.012;2022-12-10T00:08:50;100691.63;;;-0.69;100.00
30421;BME280;17218;54.070;10.012;2022-12-10T00:11:18;100702.78;;;-0.65;100.00
30421;BME280;17218;54.070;10.012;2022-12-10T00:13:47;100688.59;;;-0.58;100.00
30421;BME280;17218;54.070;10.012;2022-12-10T00:16:15;100689.44;;;-0.59;100.00
30421;BME280;17218;54.070;10.012;2022-12-10T00:18:42;100695.84;;;-0.69;100.00
30421;BME280;17218;54.070;10.012;2022-12-10T00:21:10;100699.22;;;-0.92;100.00
30421;BME280;17218;54.070;10.012;2022-12-10T00:23:38;100693.78;;;-1.01;100.00
30421;BME280;17218;54.070;10.012;2022-12-10T00:26:08;100703.38;;;-0.94;100.00
30421;BME280;17218;54.070;10.012;2022-12-10T00:28:35;100695.75;;;-0.94;100.00
30421;BME280;17218;54.070;10.012;2022-12-10T00:31:03;100698.72;;;-0.83;100.00
30421;BME280;17218;54.070;10.012;2022-12-10T00:33:30;100686.66;;;-0.66;100.00
30421;BME280;17218;54.070;10.012;2022-12-10T00:36:01;100691.22;;;-0.57;100.00
30421;BME280;17218;54.070;10.012;2022-12-10T00:38:29;100689.66;;;-0.53;100.00
30421;BME280;17218;54.070;10.012;2022-12-10T00:40:55;100693.13;;;-0.51;100.00
30421;BME280;17218;54.070;10.012;2022-12-10T00:43:23;100696.69;;;-0.46;100.00
30421;BME280;17218;54.070;10.012;2022-12-10T00:45:50;100687.50;;;-0.42;100.00
30421;BME280;17218;54.070;10.012;2022-12-10T00:48:16;100694.94;;;-0.49;100.00
30421;BME280;17218;54.070;10.012;2022-12-10T00:50:43;100697.91;;;-0.59;100.00
30421;BME280;17218;54.070;10.012;2022-12-10T00:53:09;100690.19;;;-0.62;100.00
30421;BME280;17218;54.070;10.012;2022-12-10T00:55:36;100692.66;;;-0.64;100.00
30421;BME280;17218;54.070;10.012;2022-12-10T00:58:03;100682.53;;;-0.62;100.00
30421;BME280;17218;54.070;10.012;2022-12-10T01:00:31;100690.19;;;-0.62;100.00
30421;BME280;17218;54.070;10.012;2022-12-10T01:02:57;100688.84;;;-0.52;100.00
30421;BME280;17218;54.070;10.012;2022-12-10T01:05:24;100695.28;;;-0.39;100.00
30421;BME280;17218;54.070;10.012;2022-12-10T01:07:51;100701.28;;;-0.37;100.00
30421;BME280;17218;54.070;10.012;2022-12-10T01:10:18;100691.31;;;-0.31;100.00
30421;BME280;17218;54.070;10.012;2022-12-10T01:12:45;100695.53;;;-0.31;100.00
30421;BME280;17218;54.070;10.012;2022-12-10T01:15:12;100692.59;;;-0.42;100.00
30421;BME280;17218;54.070;10.012;2022-12-10T01:17:40;100690.63;;;-0.50;100.00
30421;BME280;17218;54.070;10.012;2022-12-10T01:20:07;100707.88;;;-0.42;100.00
30421;BME280;17218;54.070;10.012;2022-12-10T01:22:34;100695.56;;;-0.54;100.00
30421;BME280;17218;54.070;10.012;2022-12-10T01:25:00;100706.59;;;-0.77;100.00
30421;BME280;17218;54.070;10.012;2022-12-10T01:27:27;100703.56;;;-0.89;100.00
30421;BME280;17218;54.070;10.012;2022-12-10T01:29:53;100718.78;;;-0.91;100.00
30421;BME280;17218;54.070;10.012;2022-12-10T01:32:20;100702.06;;;-0.84;100.00
30421;BME280;17218;54.070;10.012;2022-12-10T01:34:48;100713.66;;;-0.69;100.00
30421;BME280;17218;54.070;10.012;2022-12-10T01:37:14;100725.13;;;-0.58;100.00
30421;BME280;17218;54.070;10.012;2022-12-10T01:39:41;100725.41;;;-0.50;100.00
30421;BME280;17218;54.070;10.012;2022-12-10T01:42:10;100722.97;;;-0.47;100.00
30421;BME280;17218;54.070;10.012;2022-12-10T01:45:04;100719.91;;;-0.38;100.00
30421;BME280;17218;54.070;10.012;2022-12-10T01:47:31;100720.19;;;-0.30;100.00
30421;BME280;17218;54.070;10.012;2022-12-10T01:50:00;100713.94;;;-0.39;100.00
30421;BME280;17218;54.070;10.012;2022-12-10T01:52:27;100722.78;;;-0.52;100.00
30421;BME280;17218;54.070;10.012;2022-12-10T01:54:54;100731.97;;;-0.55;100.00
30421;BME280;17218;54.070;10.012;2022-12-10T01:57:22;100725.41;;;-0.50;100.00
30421;BME280;17218;54.070;10.012;2022-12-10T01:59:52;100731.50;;;-0.46;100.00
30421;BME280;17218;54.070;10.012;2022-12-10T02:02:28;100729.22;;;-0.62;100.00
30421;BME280;17218;54.070;10.012;2022-12-10T02:05:08;100733.59;;;-0.80;100.00
30421;BME280;17218;54.070;10.012;2022-12-10T02:07:47;100739.72;;;-0.75;100.00
30421;BME280;17218;54.070;10.012;2022-12-10T02:10:23;100735.81;;;-0.67;100.00
30421;BME280;17218;54.070;10.012;2022-12-10T02:12:55;100735.63;;;-0.72;100.00
30421;BME280;17218;54.070;10.012;2022-12-10T02:15:25;100739.44;;;-0.60;100.00
30421;BME280;17218;54.070;10.012;2022-12-10T02:17:55;100735.41;;;-0.55;100.00
30421;BME280;17218;54.070;10.012;2022-12-10T02:20:28;100729.38;;;-0.57;100.00
30421;BME280;17218;54.070;10.012;2022-12-10T02:23:01;100732.97;;;-0.52;100.00
30421;BME280;17218;54.070;10.012;2022-12-10T02:25:34;100737.94;;;-0.55;100.00
30421;BME280;17218;54.070;10.012;2022-12-10T02:28:12;100734.81;;;-0.47;100.00
30421;BME280;17218;54.070;10.012;2022-12-10T02:30:42;100737.38;;;-0.47;100.00
30421;BME280;17218;54.070;10.012;2022-12-10T02:33:12;100733.91;;;-0.50;100.00
30421;BME280;17218;54.070;10.012;2022-12-10T02:35:40;100742.94;;;-0.58;100.00
30421;BME280;17218;54.070;10.012;2022-12-10T02:38:11;100737.94;;;-0.55;100.00
30421;BME280;17218;54.070;10.012;2022-12-10T02:40:44;100737.03;;;-0.57;100.00
30421;BME280;17218;54.070;10.012;2022-12-10T02:43:12;100739.28;;;-0.42;100.00
30421;BME280;17218;54.070;10.012;2022-12-10T02:45:42;100741.72;;;-0.45;100.00
30421;BME280;17218;54.070;10.012;2022-12-10T02:48:11;100739.91;;;-0.47;100.00
30421;BME280;17218;54.070;10.012;2022-12-10T02:50:38;100736.97;;;-0.35;100.00
30421;BME280;17218;54.070;10.012;2022-12-10T02:53:05;100731.59;;;-0.20;100.00
30421;BME280;17218;54.070;10.012;2022-12-10T02:55:42;100734.19;;;-0.19;100.00
30421;BME280;17218;54.070;10.012;2022-12-10T02:58:19;100735.03;;;-0.18;100.00
30421;BME280;17218;54.070;10.012;2022-12-10T03:00:58;100741.50;;;-0.04;100.00
30421;BME280;17218;54.070;10.012;2022-12-10T03:03:40;100749.28;;;-0.01;100.00
30421;BME280;17218;54.070;10.012;2022-12-10T03:06:15;100739.19;;;0.03;100.00
30421;BME280;17218;54.070;10.012;2022-12-10T03:08:47;100748.94;;;-0.10;100.00
30421;BME280;17218;54.070;10.012;2022-12-10T03:11:17;100749.47;;;-0.19;100.00
30421;BME280;17218;54.070;10.012;2022-12-10T03:13:49;100754.53;;;-0.20;100.00
30421;BME280;17218;54.070;10.012;2022-12-10T03:16:20;100755.16;;;-0.26;100.00
30421;BME280;17218;54.070;10.012;2022-12-10T03:18:49;100742.19;;;-0.32;100.00
30421;BME280;17218;54.070;10.012;2022-12-10T03:21:17;100752.66;;;-0.25;100.00
30421;BME280;17218;54.070;10.012;2022-12-10T03:23:46;100742.63;;;-0.20;100.00
30421;BME280;17218;54.070;10.012;2022-12-10T03:26:14;100748.88;;;-0.11;100.00
30421;BME280;17218;54.070;10.012;2022-12-10T03:28:45;100763.75;;;0.01;100.00
30421;BME280;17218;54.070;10.012;2022-12-10T03:31:14;100751.44;;;0.13;100.00
30421;BME280;17218;54.070;10.012;2022-12-10T03:33:43;100759.75;;;0.07;100.00
30421;BME280;17218;54.070;10.012;2022-12-10T03:36:10;100745.81;;;-0.03;100.00
30421;BME280;17218;54.070;10.012;2022-12-10T03:38:39;100757.47;;;-0.09;100.00
30421;BME280;17218;54.070;10.012;2022-12-10T03:41:06;100757.50;;;-0.08;100.00
30421;BME280;17218;54.070;10.012;2022-12-10T03:43:33;100763.41;;;-0.09;100.00
30421;BME280;17218;54.070;10.012;2022-12-10T03:46:00;100756.41;;;-0.15;100.00
30421;BME280;17218;54.070;10.012;2022-12-10T03:48:27;100757.38;;;-0.11;100.00
30421;BME280;17218;54.070;10.012;2022-12-10T03:50:55;100758.19;;;-0.35;100.00
30421;BME280;17218;54.070;10.012;2022-12-10T03:53:21;100746.47;;;-0.54;100.00
30421;BME280;17218;54.070;10.012;2022-12-10T03:55:48;100756.63;;;-0.54;100.00
30421;BME280;17218;54.070;10.012;2022-12-10T03:58:14;100761.22;;;-0.45;100.00
30421;BME280;17218;54.070;10.012;2022-12-10T04:00:41;100759.28;;;-0.51;100.00
30421;BME280;17218;54.070;10.012;2022-12-10T04:03:07;100755.47;;;-0.63;100.00
30421;BME280;17218;54.070;10.012;2022-12-10T04:05:34;100759.13;;;-0.77;100.00
30421;BME280;17218;54.070;10.012;2022-12-10T04:08:04;100768.69;;;-0.72;100.00
30421;BME280;17218;54.070;10.012;2022-12-10T04:10:35;100766.16;;;-0.72;100.00
30421;BME280;17218;54.070;10.012;2022-12-10T04:13:01;100762.09;;;-0.66;100.00
30421;BME280;17218;54.070;10.012;2022-12-10T04:15:45;100768.31;;;-0.81;100.00
30421;BME280;17218;54.070;10.012;2022-12-10T04:18:29;100757.72;;;-0.70;100.00
30421;BME280;17218;54.070;10.012;2022-12-10T04:20:56;100759.69;;;-0.63;100.00
30421;BME280;17218;54.070;10.012;2022-12-10T04:23:41;100762.31;;;-0.62;100.00
30421;BME280;17218;54.070;10.012;2022-12-10T04:26:25;100757.28;;;-0.37;100.00
30421;BME280;17218;54.070;10.012;2022-12-10T04:29:17;100768.69;;;-0.27;100.00
30421;BME280;17218;54.070;10.012;2022-12-10T04:31:44;100758.53;;;-0.26;100.00
30421;BME280;17218;54.070;10.012;2022-12-10T04:34:11;100745.41;;;-0.14;100.00
30421;BME280;17218;54.070;10.012;2022-12-10T04:36:37;100759.22;;;-0.07;100.00
30421;BME280;17218;54.070;10.012;2022-12-10T04:39:05;100756.97;;;-0.22;100.00
30421;BME280;17218;54.070;10.012;2022-12-10T04:41:32;100741.09;;;-0.39;100.00
30421;BME280;17218;54.070;10.012;2022-12-10T04:43:59;100751.75;;;-0.48;100.00
30421;BME280;17218;54.070;10.012;2022-12-10T04:46:25;100758.25;;;-0.56;100.00
30421;BME280;17218;54.070;10.012;2022-12-10T04:48:52;100755.03;;;-0.52;100.00
30421;BME280;17218;54.070;10.012;2022-12-10T04:51:18;100757.38;;;-0.57;100.00
30421;BME280;17218;54.070;10.012;2022-12-10T04:53:45;100748.81;;;-0.59;100.00
30421;BME280;17218;54.070;10.012;2022-12-10T04:56:13;100749.00;;;-0.54;100.00
30421;BME280;17218;54.070;10.012;2022-12-10T04:58:40;100751.31;;;-0.61;100.00
30421;BME280;17218;54.070;10.012;2022-12-10T05:01:09;100750.44;;;-0.61;100.00
30421;BME280;17218;54.070;10.012;2022-12-10T05:03:36;100755.06;;;-0.51;100.00
30421;BME280;17218;54.070;10.012;2022-12-10T05:06:04;100746.88;;;-0.43;100.00
30421;BME280;17218;54.070;10.012;2022-12-10T05:08:31;100750.16;;;-0.46;100.00
30421;BME280;17218;54.070;10.012;2022-12-10T05:11:00;100761.41;;;-0.41;100.00
30421;BME280;17218;54.070;10.012;2022-12-10T05:13:29;100763.06;;;-0.41;100.00
30421;BME280;17218;54.070;10.012;2022-12-10T05:15:55;100763.13;;;-0.40;100.00
30421;BME280;17218;54.070;10.012;2022-12-10T05:18:22;100766.38;;;-0.21;100.00
30421;BME280;17218;54.070;10.012;2022-12-10T05:20:49;100748.53;;;-0.21;100.00
30421;BME280;17218;54.070;10.012;2022-12-10T05:23:16;100757.75;;;-0.25;100.00
30421;BME280;17218;54.070;10.012;2022-12-10T05:25:58;100765.44;;;-0.23;100.00
30421;BME280;17218;54.070;10.012;2022-12-10T05:28:25;100769.25;;;-0.34;100.00
30421;BME280;17218;54.070;10.012;2022-12-10T05:30:53;100770.00;;;-0.60;100.00
30421;BME280;17218;54.070;10.012;2022-12-10T05:33:20;100774.59;;;-0.73;100.00
30421;BME280;17218;54.070;10.012;2022-12-10T05:35:52;100765.00;;;-0.80;100.00
30421;BME280;17218;54.070;10.012;2022-12-10T05:38:19;100772.31;;;-0.88;100.00
30421;BME280;17218;54.070;10.012;2022-12-10T05:40:45;100763.81;;;-0.88;100.00
30421;BME280;17218;54.070;10.012;2022-12-10T05:43:12;100772.19;;;-0.91;100.00
30421;BME280;17218;54.070;10.012;2022-12-10T05:45:39;100772.81;;;-0.97;100.00
30421;BME280;17218;54.070;10.012;2022-12-10T05:48:08;100769.06;;;-1.05;100.00
30421;BME280;17218;54.070;10.012;2022-12-10T05:50:36;100773.97;;;-0.88;100.00
30421;BME280;17218;54.070;10.012;2022-12-10T05:53:02;100775.78;;;-0.86;100.00
30421;BME280;17218;54.070;10.012;2022-12-10T05:55:29;100772.13;;;-0.71;100.00
30421;BME280;17218;54.070;10.012;2022-12-10T05:57:58;100789.94;;;-0.71;100.00
30421;BME280;17218;54.070;10.012;2022-12-10T06:00:25;100782.97;;;-0.75;100.00
30421;BME280;17218;54.070;10.012;2022-12-10T06:02:52;100781.34;;;-0.73;100.00
30421;BME280;17218;54.070;10.012;2022-12-10T06:05:20;100767.69;;;-0.54;100.00
30421;BME280;17218;54.070;10.012;2022-12-10T06:07:47;100782.97;;;-0.31;100.00
30421;BME280;17218;54.070;10.012;2022-12-10T06:10:13;100780.13;;;-0.16;100.00
30421;BME280;17218;54.070;10.012;2022-12-10T06:12:40;100773.81;;;-0.03;100.00
30421;BME280;17218;54.070;10.012;2022-12-10T06:15:07;100790.72;;;-0.05;100.00
30421;BME280;17218;54.070;10.012;2022-12-10T06:17:34;100783.66;;;-0.12;100.00
30421;BME280;17218;54.070;10.012;2022-12-10T06:20:01;100787.72;;;-0.17;100.00
30421;BME280;17218;54.070;10.012;2022-12-10T06:22:29;100787.78;;;-0.16;100.00
30421;BME280;17218;54.070;10.012;2022-12-10T06:24:56;100790.16;;;-0.20;100.00
30421;BME280;17218;54.070;10.012;2022-12-10T06:27:22;100794.03;;;-0.30;100.00
30421;BME280;17218;54.070;10.012;2022-12-10T06:29:49;100787.19;;;-0.31;100.00
30421;BME280;17218;54.070;10.012;2022-12-10T06:32:15;100799.44;;;-0.44;100.00
30421;BME280;17218;54.070;10.012;2022-12-10T06:34:42;100796.78;;;-0.47;100.00
30421;BME280;17218;54.070;10.012;2022-12-10T06:37:08;100795.44;;;-0.60;100.00
30421;BME280;17218;54.070;10.012;2022-12-10T06:39:37;100799.03;;;-0.55;100.00
30421;BME280;17218;54.070;10.012;2022-12-10T06:42:03;100793.25;;;-0.51;100.00
30421;BME280;17218;54.070;10.012;2022-12-10T06:44:31;100796.69;;;-0.50;100.00
30421;BME280;17218;54.070;10.012;2022-12-10T06:46:57;100792.38;;;-0.51;100.00
30421;BME280;17218;54.070;10.012;2022-12-10T06:49:24;100791.41;;;-0.76;100.00
30421;BME280;17218;54.070;10.012;2022-12-10T06:51:51;100793.75;;;-0.81;100.00
30421;BME280;17218;54.070;10.012;2022-12-10T06:54:17;100794.59;;;-0.82;100.00
30421;BME280;17218;54.070;10.012;2022-12-10T06:56:45;100803.88;;;-0.82;100.00
30421;BME280;17218;54.070;10.012;2022-12-10T06:59:12;100807.19;;;-0.85;100.00
30421;BME280;17218;54.070;10.012;2022-12-10T07:01:38;100805.81;;;-0.77;100.00
30421;BME280;17218;54.070;10.012;2022-12-10T07:04:05;100805.63;;;-0.60;100.00
30421;BME280;17218;54.070;10.012;2022-12-10T07:06:32;100808.66;;;-0.69;100.00
30421;BME280;17218;54.070;10.012;2022-12-10T07:08:59;100819.91;;;-0.85;100.00
30421;BME280;17218;54.070;10.012;2022-12-10T07:11:26;100835.78;;;-0.91;100.00
30421;BME280;17218;54.070;10.012;2022-12-10T07:13:54;100823.69;;;-0.97;100.00
30421;BME280;17218;54.070;10.012;2022-12-10T07:16:23;100833.25;;;-0.91;100.00
30421;BME280;17218;54.070;10.012;2022-12-10T07:18:51;100831.53;;;-0.90;100.00
30421;BME280;17218;54.070;10.012;2022-12-10T07:21:20;100834.84;;;-0.72;100.00
30421;BME280;17218;54.070;10.012;2022-12-10T07:23:47;100825.97;;;-0.60;100.00
30421;BME280;17218;54.070;10.012;2022-12-10T07:26:14;100829.13;;;-0.44;100.00
30421;BME280;17218;54.070;10.012;2022-12-10T07:28:41;100839.66;;;-0.35;100.00
30421;BME280;17218;54.070;10.012;2022-12-10T07:31:09;100827.06;;;-0.32;100.00
30421;BME280;17218;54.070;10.012;2022-12-10T07:33:36;100833.66;;;-0.37;100.00
30421;BME280;17218;54.070;10.012;2022-12-10T07:36:04;100847.59;;;-0.50;100.00
30421;BME280;17218;54.070;10.012;2022-12-10T07:38:31;100841.66;;;-0.49;100.00
30421;BME280;17218;54.070;10.012;2022-12-10T07:40:57;100838.41;;;-0.46;100.00
30421;BME280;17218;54.070;10.012;2022-12-10T07:43:24;100844.72;;;-0.58;100.00
30421;BME280;17218;54.070;10.012;2022-12-10T07:45:51;100846.38;;;-0.58;100.00
30421;BME280;17218;54.070;10.012;2022-12-10T07:48:19;100841.81;;;-0.67;100.00
30421;BME280;17218;54.070;10.012;2022-12-10T07:50:45;100853.28;;;-0.77;100.00
30421;BME280;17218;54.070;10.012;2022-12-10T07:53:12;100848.63;;;-0.88;100.00
30421;BME280;17218;54.070;10.012;2022-12-10T07:55:39;100850.94;;;-0.73;100.00
30421;BME280;17218;54.070;10.012;2022-12-10T07:58:05;100853.28;;;-0.77;100.00
30421;BME280;17218;54.070;10.012;2022-12-10T08:00:32;100865.44;;;-0.91;100.00
30421;BME280;17218;54.070;10.012;2022-12-10T08:02:58;100864.66;;;-1.10;100.00
30421;BME280;17218;54.070;10.012;2022-12-10T08:05:26;100867.00;;;-1.15;100.00
30421;BME280;17218;54.070;10.012;2022-12-10T08:07:53;100866.59;;;-1.04;100.00
30421;BME280;17218;54.070;10.012;2022-12-10T08:10:19;100869.53;;;-0.95;100.00
30421;BME280;17218;54.070;10.012;2022-12-10T08:12:46;100881.03;;;-0.83;100.00
30421;BME280;17218;54.070;10.012;2022-12-10T08:15:12;100873.50;;;-0.80;100.00
30421;BME280;17218;54.070;10.012;2022-12-10T08:17:39;100885.16;;;-0.86;100.00
30421;BME280;17218;54.070;10.012;2022-12-10T08:20:07;100880.31;;;-0.79;100.00
30421;BME280;17218;54.070;10.012;2022-12-10T08:22:36;100876.09;;;-1.00;100.00
30421;BME280;17218;54.070;10.012;2022-12-10T08:25:03;100886.66;;;-1.11;100.00
30421;BME280;17218;54.070;10.012;2022-12-10T08:27:30;100893.34;;;-1.13;100.00
30421;BME280;17218;54.070;10.012;2022-12-10T08:29:57;100895.41;;;-1.24;100.00
30421;BME280;17218;54.070;10.012;2022-12-10T08:32:23;100895.63;;;-1.19;100.00
30421;BME280;17218;54.070;10.012;2022-12-10T08:34:50;100899.91;;;-1.18;100.00
30421;BME280;17218;54.070;10.012;2022-12-10T08:37:16;100909.53;;;-1.11;100.00
30421;BME280;17218;54.070;10.012;2022-12-10T08:39:44;100914.34;;;-0.97;100.00
30421;BME280;17218;54.070;10.012;2022-12-10T08:42:11;100892.91;;;-0.82;100.00
30421;BME280;17218;54.070;10.012;2022-12-10T08:44:38;100901.53;;;-0.79;100.00
30421;BME280;17218;54.070;10.012;2022-12-10T08:47:05;100913.63;;;-1.14;100.00
30421;BME280;17218;54.070;10.012;2022-12-10T08:49:31;100906.06;;;-1.13;100.00
30421;BME280;17218;54.070;10.012;2022-12-10T08:51:58;100900.66;;;-1.21;100.00
30421;BME280;17218;54.070;10.012;2022-12-10T08:54:25;100911.97;;;-1.34;100.00
30421;BME280;17218;54.070;10.012;2022-12-10T08:56:53;100917.38;;;-1.26;100.00
30421;BME280;17218;54.070;10.012;2022-12-10T08:59:20;100910.13;;;-1.36;100.00
30421;BME280;17218;54.070;10.012;2022-12-10T09:01:46;100914.69;;;-1.29;100.00
30421;BME280;17218;54.070;10.012;2022-12-10T09:04:13;100916.34;;;-1.29;100.00
30421;BME280;17218;54.070;10.012;2022-12-10T09:06:41;100914.75;;;-1.27;100.00
30421;BME280;17218;54.070;10.012;2022-12-10T09:09:07;100915.09;;;-1.20;100.00
30421;BME280;17218;54.070;10.012;2022-12-10T09:11:34;100913.44;;;-1.19;100.00
30421;BME280;17218;54.070;10.012;2022-12-10T09:14:02;100916.34;;;-1.29;100.00
30421;BME280;17218;54.070;10.012;2022-12-10T09:16:31;100925.31;;;-1.38;100.00
30421;BME280;17218;54.070;10.012;2022-12-10T09:18:58;100936.16;;;-1.42;100.00
30421;BME280;17218;54.070;10.012;2022-12-10T09:21:24;100927.03;;;-1.37;100.00
30421;BME280;17218;54.070;10.012;2022-12-10T09:23:51;100930.16;;;-1.24;100.00
30421;BME280;17218;54.070;10.012;2022-12-10T09:26:18;100931.00;;;-1.24;100.00
30421;BME280;17218;54.070;10.012;2022-12-10T09:28:46;100934.41;;;-1.43;100.00
30421;BME280;17218;54.070;10.012;2022-12-10T09:31:16;100939.56;;;-1.41;100.00
30421;BME280;17218;54.070;10.012;2022-12-10T09:33:43;100946.56;;;-1.56;100.00
30421;BME280;17218;54.070;10.012;2022-12-10T09:36:12;100943.41;;;-1.50;100.00
30421;BME280;17218;54.070;10.012;2022-12-10T09:38:40;100946.38;;;-1.40;100.00
30421;BME280;17218;54.070;10.012;2022-12-10T09:41:20;100939.84;;;-1.35;100.00
30421;BME280;17218;54.070;10.012;2022-12-10T09:43:58;100941.28;;;-1.22;100.00
30421;BME280;17218;54.070;10.012;2022-12-10T09:46:36;100947.13;;;-1.23;100.00
30421;BME280;17218;54.070;10.012;2022-12-10T09:49:11;100937.44;;;-1.32;100.00
30421;BME280;17218;54.070;10.012;2022-12-10T09:51:39;100942.66;;;-1.29;100.00
30421;BME280;17218;54.070;10.012;2022-12-10T09:54:17;100938.31;;;-1.12;100.00
30421;BME280;17218;54.070;10.012;2022-12-10T09:56:45;100945.06;;;-1.12;100.00
30421;BME280;17218;54.070;10.012;2022-12-10T09:59:16;100946.38;;;-1.40;100.00
30421;BME280;17218;54.070;10.012;2022-12-10T10:01:48;100954.78;;;-1.61;100.00
30421;BME280;17218;54.070;10.012;2022-12-10T10:04:17;100953.34;;;-1.74;100.00
30421;BME280;17218;54.070;10.012;2022-12-10T10:06:43;100950.56;;;-1.79;100.00
30421;BME280;17218;54.070;10.012;2022-12-10T10:09:11;100943.84;;;-1.97;100.00
30421;BME280;17218;54.070;10.012;2022-12-10T10:11:38;100946.50;;;-1.94;100.00
30421;BME280;17218;54.070;10.012;2022-12-10T10:14:12;100945.78;;;-1.91;100.00
30421;BME280;17218;54.070;10.012;2022-12-10T10:16:43;100951.53;;;-1.95;100.00
30421;BME280;17218;54.070;10.012;2022-12-10T10:19:14;100941.88;;;-2.02;100.00
30421;BME280;17218;54.070;10.012;2022-12-10T10:21:43;100959.44;;;-1.89;100.00
30421;BME280;17218;54.070;10.012;2022-12-10T10:24:13;100953.16;;;-1.77;100.00
30421;BME280;17218;54.070;10.012;2022-12-10T10:26:42;100948.09;;;-1.59;100.00
30421;BME280;17218;54.070;10.012;2022-12-10T10:29:11;100951.00;;;-1.70;100.00
30421;BME280;17218;54.070;10.012;2022-12-10T10:31:40;100949.13;;;-1.56;100.00
30421;BME280;17218;54.070;10.012;2022-12-10T10:34:16;100939.84;;;-1.35;100.00
30421;BME280;17218;54.070;10.012;2022-12-10T10:36:43;100950.28;;;-1.29;100.00
30421;BME280;17218;54.070;10.012;2022-12-10T10:39:21;100943.88;;;-1.21;100.00
30421;BME280;17218;54.070;10.012;2022-12-10T10:41:53;100940.34;;;-1.04;100.00
30421;BME280;17218;54.070;10.012;2022-12-10T10:44:22;100954.38;;;-0.93;100.00
30421;BME280;17218;54.070;10.012;2022-12-10T10:46:53;100952.31;;;-1.02;100.00
30421;BME280;17218;54.070;10.012;2022-12-10T10:49:24;100952.22;;;-1.03;100.00
30421;BME280;17218;54.070;10.012;2022-12-10T10:51:53;100944.81;;;-1.18;100.00
30421;BME280;17218;54.070;10.012;2022-12-10T10:54:32;100954.09;;;-1.39;100.00
30421;BME280;17218;54.070;10.012;2022-12-10T10:57:02;100958.88;;;-1.45;100.00
30421;BME280;17218;54.070;10.012;2022-12-10T10:59:32;100958.31;;;-1.39;100.00
30421;BME280;17218;54.070;10.012;2022-12-10T11:02:03;100956.50;;;-1.60;100.00
30421;BME280;17218;54.070;10.012;2022-12-10T11:04:38;100962.91;;;-1.69;100.00
30421;BME280;17218;54.070;10.012;2022-12-10T11:07:18;100963.44;;;-1.76;100.00
30421;BME280;17218;54.070;10.012;2022-12-10T11:09:45;100951.56;;;-1.57;100.00
30421;BME280;17218;54.070;10.012;2022-12-10T11:12:26;100950.69;;;-1.39;100.00
30421;BME280;17218;54.070;10.012;2022-12-10T11:14:54;100954.78;;;-1.23;100.00
30421;BME280;17218;54.070;10.012;2022-12-10T11:17:22;100944.72;;;-1.40;100.00
30421;BME280;17218;54.070;10.012;2022-12-10T11:19:59;100940.03;;;-1.30;100.00
30421;BME280;17218;54.070;10.012;2022-12-10T11:22:28;100947.22;;;-1.22;100.00
30421;BME280;17218;54.070;10.012;2022-12-10T11:24:56;100937.63;;;-1.27;100.00
30421;BME280;17218;54.070;10.012;2022-12-10T11:27:38;100942.91;;;-1.42;100.00
30421;BME280;17218;54.070;10.012;2022-12-10T11:30:12;100931.69;;;-1.28;100.00
30421;BME280;17218;54.070;10.012;2022-12-10T11:32:55;100944.31;;;-1.29;100.00
30421;BME280;17218;54.070;10.012;2022-12-10T11:35:39;100934.31;;;-1.26;100.00
30421;BME280;17218;54.070;10.012;2022-12-10T11:38:16;100934.97;;;-1.11;100.00
30421;BME280;17218;54.070;10.012;2022-12-10T11:40:50;100924.53;;;-0.97;100.00
30421;BME280;17218;54.070;10.012;2022-12-10T11:43:38;100928.59;;;-0.81;100.00
30421;BME280;17218;54.070;10.012;2022-12-10T11:46:19;100925.00;;;-0.65;100.00
30421;BME280;17218;54.070;10.012;2022-12-10T11:49:00;100929.03;;;-0.50;100.00
30421;BME280;17218;54.070;10.012;2022-12-10T11:51:35;100936.97;;;-0.42;100.00
30421;BME280;17218;54.070;10.012;2022-12-10T11:54:28;100934.41;;;-0.64;100.00
30421;BME280;17218;54.070;10.012;2022-12-10T11:57:03;100935.97;;;-0.87;100.00
30421;BME280;17218;54.070;10.012;2022-12-10T11:59:36;100923.25;;;-1.07;100.00
30421;BME280;17218;54.070;10.012;2022-12-10T12:02:36;100939.31;;;-1.08;100.00
30421;BME280;17218;54.070;10.012;2022-12-10T12:05:19;100929.81;;;-0.92;100.00
30421;BME280;17218;54.070;10.012;2022-12-10T12:07:55;100925.94;;;-0.84;100.00
30421;BME280;17218;54.070;10.012;2022-12-10T12:10:45;100928.47;;;-0.84;100.00
30421;BME280;17218;54.070;10.012;2022-12-10T12:13:16;100914.00;;;-0.65;100.00
30421;BME280;17218;54.070;10.012;2022-12-10T12:15:49;100912.94;;;-0.49;100.00
30421;BME280;17218;54.070;10.012;2022-12-10T12:18:21;100915.66;;;-0.44;100.00
30421;BME280;17218;54.070;10.012;2022-12-10T12:20:51;100914.94;;;-0.42;100.00
30421;BME280;17218;54.070;10.012;2022-12-10T12:23:24;100911.13;;;-0.52;100.00
30421;BME280;17218;54.070;10.012;2022-12-10T12:25:55;100910.50;;;-0.46;100.00
30421;BME280;17218;54.070;10.012;2022-12-10T12:28:26;100916.59;;;-0.42;100.00
30421;BME280;17218;54.070;10.012;2022-12-10T12:30:59;100924.72;;;-0.51;100.00
30421;BME280;17218;54.070;10.012;2022-12-10T12:33:31;100914.53;;;-0.51;100.00
30421;BME280;17218;54.070;10.012;2022-12-10T12:36:02;100920.06;;;-0.40;100.00
30421;BME280;17218;54.070;10.012;2022-12-10T12:38:41;100922.94;;;-0.32;100.00
30421;BME280;17218;54.070;10.012;2022-12-10T12:41:15;100921.56;;;-0.24;100.00
30421;BME280;17218;54.070;10.012;2022-12-10T12:43:47;100918.53;;;-0.15;100.00